Time;durP1;ratioP1;P1;durP2;ratioP2;P2;SDS_P1;SDS_P2;PMS_P1;PMS_P2;Temp;Humidity;BMP_temperature;BMP_pressure;BME280_temperature;BME280_humidity;BME280_pressure;Samples;Min_cycle;Max_cycle;Signal;HPM_P1;HPM_P2
2023/09/24 00:01:53;;;;;;;;;;;13.30;99.90;;;;;;5073108;28;19953;-68
2023/09/24 00:04:19;;;;;;;;;;;13.40;99.90;;;;;;5073322;28;19908;-68
2023/09/24 00:06:45;;;;;;;;;;;13.20;99.90;;;;;;5073236;28;20002;-69
2023/09/24 00:09:13;;;;;;;;;;;13.00;99.90;;;;;;5072892;28;19908;-68
2023/09/24 00:11:39;;;;;;;;;;;12.90;99.90;;;;;;5073679;28;20281;-68
2023/09/24 00:14:04;;;;;;;;;;;12.90;99.90;;;;;;5075744;28;19904;-68
2023/09/24 00:16:30;;;;;;;;;;;12.80;99.90;;;;;;5077000;28;19908;-68
2023/09/24 00:18:56;;;;;;;;;;;12.90;99.90;;;;;;5076621;28;19995;-68
2023/09/24 00:21:21;;;;;;;;;;;12.90;99.90;;;;;;5075517;28;19962;-68
2023/09/24 00:23:47;;;;;;;;;;;12.80;99.90;;;;;;5075101;28;20046;-67
2023/09/24 00:26:12;;;;;;;;;;;12.70;99.90;;;;;;5076587;28;19908;-68
2023/09/24 00:28:38;;;;;;;;;;;12.70;99.90;;;;;;5075259;28;20020;-68
2023/09/24 00:31:03;;;;;;;;;;;12.60;99.90;;;;;;5076789;28;19918;-68
2023/09/24 00:33:29;;;;;;;;;;;12.60;99.90;;;;;;5076481;28;20000;-68
2023/09/24 00:35:57;;;;;;;;;;;12.60;99.90;;;;;;5076378;28;20286;-68
2023/09/24 00:38:22;;;;;;;;;;;12.60;99.90;;;;;;5076366;28;19904;-68
2023/09/24 00:40:48;;;;;;;;;;;12.60;99.90;;;;;;5076090;28;19970;-68
2023/09/24 00:43:30;;;;;;;;;;;12.60;99.90;;;;;;5076285;28;19943;-68
2023/09/24 00:45:56;;;;;;;;;;;12.60;99.90;;;;;;5076452;28;19908;-67
2023/09/24 00:48:23;;;;;;;;;;;13.00;99.90;;;;;;5075115;28;19904;-68
2023/09/24 00:50:48;;;;;;;;;;;13.20;99.90;;;;;;5076167;28;19954;-67
2023/09/24 00:53:14;;;;;;;;;;;13.10;99.90;;;;;;5076043;28;19904;-68
2023/09/24 00:55:40;;;;;;;;;;;12.90;99.90;;;;;;5074600;28;19909;-68
2023/09/24 00:58:05;;;;;;;;;;;12.80;99.90;;;;;;5075782;28;19905;-68
2023/09/24 01:00:34;;;;;;;;;;;12.70;99.90;;;;;;5074739;28;19937;-68
2023/09/24 01:03:00;;;;;;;;;;;12.60;99.90;;;;;;5075950;28;19904;-67
2023/09/24 01:05:25;;;;;;;;;;;12.60;99.90;;;;;;5074440;28;19909;-68
2023/09/24 01:07:51;;;;;;;;;;;12.60;99.90;;;;;;5075920;28;19961;-68
2023/09/24 01:10:17;;;;;;;;;;;12.50;99.90;;;;;;5075685;28;19905;-68
2023/09/24 01:13:01;;;;;;;;;;;12.50;99.90;;;;;;5076161;28;19948;-68
2023/09/24 01:15:27;;;;;;;;;;;12.50;99.90;;;;;;5076427;28;19912;-68
2023/09/24 01:17:53;;;;;;;;;;;12.70;99.90;;;;;;5075805;28;19905;-68
2023/09/24 01:20:21;;;;;;;;;;;12.90;99.90;;;;;;5075349;28;19905;-68
2023/09/24 01:22:46;;;;;;;;;;;13.10;99.90;;;;;;5074626;28;19912;-70
2023/09/24 01:25:12;;;;;;;;;;;13.10;99.90;;;;;;5075591;28;19954;-69
2023/09/24 01:27:37;;;;;;;;;;;13.10;99.90;;;;;;5075733;28;19961;-69
2023/09/24 01:30:06;;;;;;;;;;;13.00;99.90;;;;;;5076889;28;19904;-69
2023/09/24 01:32:31;;;;;;;;;;;13.00;99.90;;;;;;5077234;28;19904;-68
2023/09/24 01:34:57;;;;;;;;;;;12.90;99.90;;;;;;5075835;28;19991;-68
2023/09/24 01:37:23;;;;;;;;;;;12.70;99.90;;;;;;5076885;28;20061;-67
2023/09/24 01:39:51;;;;;;;;;;;12.70;99.90;;;;;;5076994;28;19994;-68
2023/09/24 01:42:16;;;;;;;;;;;12.40;99.90;;;;;;5075965;28;20294;-68
2023/09/24 01:44:42;;;;;;;;;;;12.30;99.90;;;;;;5075375;28;19904;-68
2023/09/24 01:47:07;;;;;;;;;;;12.20;99.90;;;;;;5076842;28;20286;-68
2023/09/24 01:49:33;;;;;;;;;;;12.10;99.90;;;;;;5076446;28;19912;-68
2023/09/24 01:51:59;;;;;;;;;;;12.00;99.90;;;;;;5075778;28;19911;-68
2023/09/24 01:54:28;;;;;;;;;;;12.00;99.90;;;;;;5076785;28;19905;-68
2023/09/24 01:56:54;;;;;;;;;;;12.00;99.90;;;;;;5074398;28;20374;-67
2023/09/24 01:59:20;;;;;;;;;;;12.10;99.90;;;;;;5074712;28;19904;-67
2023/09/24 02:01:45;;;;;;;;;;;12.40;99.90;;;;;;5074265;28;20049;-67
2023/09/24 02:04:11;;;;;;;;;;;12.50;99.90;;;;;;5075310;28;20285;-68
2023/09/24 02:06:36;;;;;;;;;;;12.60;99.90;;;;;;5074995;28;19908;-68
2023/09/24 02:09:02;;;;;;;;;;;12.60;99.90;;;;;;5074716;28;19904;-68
2023/09/24 02:11:28;;;;;;;;;;;12.50;99.90;;;;;;5073760;28;19904;-68
2023/09/24 02:13:54;;;;;;;;;;;12.40;99.90;;;;;;5075005;28;19905;-68
2023/09/24 02:16:19;;;;;;;;;;;12.50;99.90;;;;;;5074882;28;20370;-68
2023/09/24 02:18:44;;;;;;;;;;;12.50;99.90;;;;;;5074603;28;19905;-69
2023/09/24 02:21:14;;;;;;;;;;;12.40;99.90;;;;;;5073180;28;19908;-68
2023/09/24 02:23:40;;;;;;;;;;;12.40;99.90;;;;;;5074736;28;19905;-68
2023/09/24 02:26:08;;;;;;;;;;;12.40;99.90;;;;;;5074561;28;19914;-67
2023/09/24 02:28:38;;;;;;;;;;;12.50;99.90;;;;;;5086317;22;20328;-64
2023/09/24 02:31:07;;;;;;;;;;;12.50;99.90;;;;;;5073586;28;20312;-64
2023/09/24 02:33:32;;;;;;;;;;;12.40;99.90;;;;;;5074526;28;19911;-64
2023/09/24 02:35:57;;;;;;;;;;;12.30;99.90;;;;;;5074421;28;20332;-64
2023/09/24 02:38:24;;;;;;;;;;;12.40;99.90;;;;;;5073466;28;19934;-64
2023/09/24 02:40:50;;;;;;;;;;;12.50;99.90;;;;;;5074641;28;19927;-64
2023/09/24 02:43:15;;;;;;;;;;;12.40;99.90;;;;;;5074335;28;20346;-64
2023/09/24 02:45:41;;;;;;;;;;;12.50;99.90;;;;;;5073934;28;20358;-65
2023/09/24 02:48:06;;;;;;;;;;;12.40;99.90;;;;;;5074012;28;19905;-64
2023/09/24 02:50:32;;;;;;;;;;;12.30;99.90;;;;;;5074104;28;19904;-62
2023/09/24 02:52:59;;;;;;;;;;;12.20;99.90;;;;;;5074608;28;19904;-64
2023/09/24 02:55:25;;;;;;;;;;;12.20;99.90;;;;;;5074492;28;20050;-64
2023/09/24 02:57:50;;;;;;;;;;;12.00;99.90;;;;;;5072827;28;19904;-65
2023/09/24 03:00:26;;;;;;;;;;;12.00;99.90;;;;;;5072696;28;19955;-63
2023/09/24 03:02:53;;;;;;;;;;;12.00;99.90;;;;;;5074589;28;20350;-65
2023/09/24 03:05:24;;;;;;;;;;;12.00;99.90;;;;;;5074355;28;20267;-64
2023/09/24 03:07:50;;;;;;;;;;;11.90;99.90;;;;;;5074578;28;19915;-64
2023/09/24 03:10:16;;;;;;;;;;;11.90;99.90;;;;;;5074175;28;20259;-63
2023/09/24 03:12:41;;;;;;;;;;;12.00;99.90;;;;;;5073899;28;19949;-63
2023/09/24 03:15:10;;;;;;;;;;;12.00;99.90;;;;;;5073749;28;19904;-63
2023/09/24 03:17:35;;;;;;;;;;;11.90;99.90;;;;;;5074354;28;19991;-63
2023/09/24 03:20:04;;;;;;;;;;;11.70;99.90;;;;;;5074832;28;19940;-64
2023/09/24 03:22:30;;;;;;;;;;;11.60;99.90;;;;;;5075255;28;19950;-64
2023/09/24 03:24:57;;;;;;;;;;;11.60;99.90;;;;;;5074467;28;19904;-64
2023/09/24 03:27:22;;;;;;;;;;;11.90;99.90;;;;;;5074295;28;20415;-63
2023/09/24 03:29:48;;;;;;;;;;;12.10;99.90;;;;;;5073407;28;19996;-63
2023/09/24 03:32:14;;;;;;;;;;;12.10;99.90;;;;;;5073683;28;20310;-62
2023/09/24 03:34:40;;;;;;;;;;;12.10;99.90;;;;;;5073999;28;19908;-64
2023/09/24 03:37:09;;;;;;;;;;;12.00;99.90;;;;;;5073581;28;19911;-63
2023/09/24 03:39:35;;;;;;;;;;;12.00;99.90;;;;;;5072329;28;19905;-64
2023/09/24 03:42:00;;;;;;;;;;;11.80;99.90;;;;;;5074192;28;19905;-65
2023/09/24 03:44:26;;;;;;;;;;;11.60;99.90;;;;;;5071936;28;19949;-62
2023/09/24 03:46:51;;;;;;;;;;;11.70;99.90;;;;;;5077605;28;19962;-64
2023/09/24 03:49:17;;;;;;;;;;;11.80;99.90;;;;;;5076300;28;19950;-64
2023/09/24 03:51:42;;;;;;;;;;;11.80;99.90;;;;;;5076214;28;19904;-64
2023/09/24 03:54:08;;;;;;;;;;;11.80;99.90;;;;;;5078055;28;19957;-63
2023/09/24 03:56:33;;;;;;;;;;;11.70;99.90;;;;;;5078246;28;19904;-64
2023/09/24 03:58:58;;;;;;;;;;;11.60;99.90;;;;;;5077210;28;20266;-65
2023/09/24 04:01:24;;;;;;;;;;;11.50;99.90;;;;;;5077388;28;20332;-65
2023/09/24 04:03:49;;;;;;;;;;;11.50;99.90;;;;;;5077247;28;19905;-64
2023/09/24 04:06:16;;;;;;;;;;;11.50;99.90;;;;;;5077648;28;19909;-63
2023/09/24 04:08:41;;;;;;;;;;;11.50;99.90;;;;;;5077236;28;19996;-64
2023/09/24 04:11:12;;;;;;;;;;;11.40;99.90;;;;;;5075776;28;19996;-63
2023/09/24 04:13:38;;;;;;;;;;;11.40;99.90;;;;;;5077516;28;19905;-61
2023/09/24 04:16:13;;;;;;;;;;;11.40;99.90;;;;;;5077060;28;19904;-63
2023/09/24 04:18:41;;;;;;;;;;;11.40;99.90;;;;;;5077492;28;20353;-62
2023/09/24 04:21:13;;;;;;;;;;;11.40;99.90;;;;;;5077786;28;19912;-62
2023/09/24 04:23:39;;;;;;;;;;;11.60;99.90;;;;;;5077698;28;19966;-62
2023/09/24 04:26:04;;;;;;;;;;;12.00;99.90;;;;;;5077897;28;19908;-64
2023/09/24 04:28:29;;;;;;;;;;;11.90;99.90;;;;;;5075587;28;19974;-63
2023/09/24 04:30:56;;;;;;;;;;;11.70;99.90;;;;;;5076615;28;20044;-64
2023/09/24 04:33:21;;;;;;;;;;;11.70;99.90;;;;;;5077347;28;20305;-66
2023/09/24 04:35:48;;;;;;;;;;;11.70;99.90;;;;;;5077332;28;19910;-63
2023/09/24 04:38:14;;;;;;;;;;;11.60;99.90;;;;;;5077178;28;20007;-63
2023/09/24 04:40:39;;;;;;;;;;;11.50;99.90;;;;;;5077390;28;20374;-64
2023/09/24 04:43:05;;;;;;;;;;;11.40;99.90;;;;;;5076574;28;19911;-64
2023/09/24 04:45:31;;;;;;;;;;;11.40;99.90;;;;;;5076333;28;19996;-63
2023/09/24 04:47:56;;;;;;;;;;;11.30;99.90;;;;;;5076889;28;20005;-62
2023/09/24 04:50:23;;;;;;;;;;;11.30;99.90;;;;;;5076667;28;19911;-64
2023/09/24 04:52:51;;;;;;;;;;;11.30;99.90;;;;;;5076651;28;19904;-64
2023/09/24 04:55:16;;;;;;;;;;;11.20;99.90;;;;;;5076471;28;20396;-64
2023/09/24 04:57:45;;;;;;;;;;;11.20;99.90;;;;;;5076430;28;19904;-64
2023/09/24 05:00:13;;;;;;;;;;;11.10;99.90;;;;;;5076015;28;19916;-63
2023/09/24 05:02:38;;;;;;;;;;;11.10;99.90;;;;;;5076586;28;19999;-63
2023/09/24 05:05:04;;;;;;;;;;;11.10;99.90;;;;;;5076544;28;20027;-64
2023/09/24 05:07:29;;;;;;;;;;;11.00;99.90;;;;;;5076335;28;20015;-64
2023/09/24 05:09:55;;;;;;;;;;;11.00;99.90;;;;;;5077186;28;19983;-65
2023/09/24 05:12:22;;;;;;;;;;;11.00;99.90;;;;;;5076991;28;19950;-63
2023/09/24 05:14:48;;;;;;;;;;;11.00;99.90;;;;;;5076094;28;19911;-68
2023/09/24 05:17:13;;;;;;;;;;;11.00;99.90;;;;;;5074978;28;19905;-67
2023/09/24 05:19:39;;;;;;;;;;;11.20;99.90;;;;;;5076334;28;20362;-66
2023/09/24 05:22:05;;;;;;;;;;;11.20;99.90;;;;;;5076488;28;20025;-67
2023/09/24 05:24:31;;;;;;;;;;;11.20;99.90;;;;;;5074747;28;19911;-66
2023/09/24 05:26:57;;;;;;;;;;;11.20;99.90;;;;;;5076082;28;19908;-66
2023/09/24 05:29:23;;;;;;;;;;;11.20;99.90;;;;;;5075640;28;19959;-65
2023/09/24 05:31:49;;;;;;;;;;;11.20;99.90;;;;;;5076240;28;19911;-66
2023/09/24 05:34:15;;;;;;;;;;;11.10;99.90;;;;;;5076029;28;20435;-67
2023/09/24 05:36:40;;;;;;;;;;;11.20;99.90;;;;;;5075162;28;19991;-66
2023/09/24 05:39:06;;;;;;;;;;;11.20;99.90;;;;;;5075908;28;19912;-66
2023/09/24 05:41:31;;;;;;;;;;;11.10;99.90;;;;;;5075681;28;20316;-65
2023/09/24 05:44:01;;;;;;;;;;;11.10;99.90;;;;;;5074792;28;19912;-66
2023/09/24 05:46:26;;;;;;;;;;;11.10;99.90;;;;;;5076163;28;20415;-66
2023/09/24 05:48:55;;;;;;;;;;;11.10;99.90;;;;;;5075750;28;19904;-65
2023/09/24 05:51:20;;;;;;;;;;;11.20;99.90;;;;;;5075313;28;19904;-66
2023/09/24 05:53:46;;;;;;;;;;;11.10;99.90;;;;;;5075431;28;19914;-65
2023/09/24 05:56:11;;;;;;;;;;;11.10;99.90;;;;;;5075601;28;19904;-66
2023/09/24 05:58:38;;;;;;;;;;;11.10;99.90;;;;;;5075234;28;19904;-65
2023/09/24 06:01:03;;;;;;;;;;;11.10;99.90;;;;;;5075249;28;19904;-66
2023/09/24 06:03:29;;;;;;;;;;;11.10;99.90;;;;;;5075227;28;19908;-65
2023/09/24 06:05:54;;;;;;;;;;;11.10;99.90;;;;;;5074829;28;19960;-64
2023/09/24 06:08:20;;;;;;;;;;;11.20;99.90;;;;;;5074586;28;19999;-66
2023/09/24 06:10:46;;;;;;;;;;;11.20;99.90;;;;;;5075557;28;20439;-65
2023/09/24 06:13:13;;;;;;;;;;;11.20;99.90;;;;;;5074813;28;19928;-65
2023/09/24 06:15:39;;;;;;;;;;;11.30;99.90;;;;;;5074123;28;19979;-65
2023/09/24 06:18:05;;;;;;;;;;;11.30;99.90;;;;;;5074758;28;19909;-65
2023/09/24 06:20:30;;;;;;;;;;;11.40;99.90;;;;;;5074821;28;20405;-66
2023/09/24 06:22:57;;;;;;;;;;;11.50;99.90;;;;;;5074634;28;20041;-65
2023/09/24 06:25:23;;;;;;;;;;;11.60;99.90;;;;;;5073240;28;19940;-67
2023/09/24 06:27:49;;;;;;;;;;;11.60;99.90;;;;;;5074531;28;20559;-66
2023/09/24 06:30:14;;;;;;;;;;;11.50;99.90;;;;;;5074781;28;19913;-66
2023/09/24 06:32:40;;;;;;;;;;;11.60;99.90;;;;;;5074028;28;20381;-66
2023/09/24 06:35:05;;;;;;;;;;;11.60;99.90;;;;;;5075094;28;19905;-67
2023/09/24 06:37:31;;;;;;;;;;;11.60;99.90;;;;;;5073292;28;19908;-66
2023/09/24 06:39:57;;;;;;;;;;;11.80;99.90;;;;;;5074539;28;20282;-66
2023/09/24 06:42:22;;;;;;;;;;;11.90;99.90;;;;;;5074195;28;20385;-66
2023/09/24 06:44:49;;;;;;;;;;;11.90;99.90;;;;;;5074122;28;19908;-67
2023/09/24 06:47:14;;;;;;;;;;;11.90;99.90;;;;;;5074057;28;20365;-66
2023/09/24 06:49:40;;;;;;;;;;;11.90;99.90;;;;;;5074431;28;19930;-66
2023/09/24 06:52:05;;;;;;;;;;;11.90;99.90;;;;;;5074677;28;19905;-66
2023/09/24 06:54:34;;;;;;;;;;;11.90;99.90;;;;;;5075656;28;19904;-67
2023/09/24 06:56:59;;;;;;;;;;;11.90;99.90;;;;;;5081373;28;19909;-66
2023/09/24 06:59:25;;;;;;;;;;;11.90;99.90;;;;;;5076958;28;19955;-66
2023/09/24 07:01:52;;;;;;;;;;;12.00;99.90;;;;;;5078878;28;19995;-66
2023/09/24 07:04:18;;;;;;;;;;;12.20;99.90;;;;;;5078229;28;19904;-66
2023/09/24 07:06:43;;;;;;;;;;;12.30;99.90;;;;;;5074613;28;19908;-66
2023/09/24 07:09:09;;;;;;;;;;;12.50;99.90;;;;;;5074304;28;19909;-66
2023/09/24 07:11:37;;;;;;;;;;;12.50;99.90;;;;;;5074030;28;19905;-67
2023/09/24 07:14:06;;;;;;;;;;;12.50;99.90;;;;;;5073312;28;19904;-67
2023/09/24 07:16:31;;;;;;;;;;;12.50;99.90;;;;;;5072239;28;19950;-66
2023/09/24 07:18:57;;;;;;;;;;;12.50;99.90;;;;;;5072292;28;20382;-66
2023/09/24 07:21:28;;;;;;;;;;;12.40;99.90;;;;;;5073042;28;20381;-66
2023/09/24 07:23:58;;;;;;;;;;;12.50;99.90;;;;;;5073685;28;19904;-66
2023/09/24 07:26:23;;;;;;;;;;;12.60;99.90;;;;;;5073248;28;19908;-67
2023/09/24 07:28:49;;;;;;;;;;;12.60;99.90;;;;;;5074457;28;19924;-66
2023/09/24 07:31:16;;;;;;;;;;;12.60;99.90;;;;;;5073090;28;19905;-66
2023/09/24 07:33:42;;;;;;;;;;;12.70;99.90;;;;;;5073487;28;19904;-65
2023/09/24 07:36:08;;;;;;;;;;;12.70;99.90;;;;;;5072544;28;19966;-67
2023/09/24 07:38:34;;;;;;;;;;;12.80;99.90;;;;;;5067571;28;20306;-64
2023/09/24 07:40:59;;;;;;;;;;;12.80;99.90;;;;;;5072481;28;19905;-64
2023/09/24 07:43:25;;;;;;;;;;;12.80;99.90;;;;;;5073562;28;20247;-63
2023/09/24 07:45:51;;;;;;;;;;;12.90;99.90;;;;;;5073366;28;19908;-63
2023/09/24 07:48:16;;;;;;;;;;;12.90;99.90;;;;;;5072370;28;19904;-64
2023/09/24 07:50:48;;;;;;;;;;;13.00;99.90;;;;;;5073353;28;20005;-64
2023/09/24 07:53:14;;;;;;;;;;;13.00;99.90;;;;;;5067856;28;19912;-65
2023/09/24 07:55:39;;;;;;;;;;;13.10;99.90;;;;;;5068686;28;20282;-65
2023/09/24 07:58:05;;;;;;;;;;;13.20;99.90;;;;;;5071927;28;19936;-64
2023/09/24 08:00:30;;;;;;;;;;;13.30;99.90;;;;;;5067248;28;19905;-64
2023/09/24 08:02:56;;;;;;;;;;;13.30;99.90;;;;;;5068992;28;19904;-64
2023/09/24 08:05:21;;;;;;;;;;;13.40;99.90;;;;;;5055082;28;19904;-65
2023/09/24 08:07:47;;;;;;;;;;;13.50;99.90;;;;;;5053056;28;19911;-64
2023/09/24 08:10:12;;;;;;;;;;;13.50;99.90;;;;;;5051972;28;19905;-65
2023/09/24 08:12:38;;;;;;;;;;;13.60;99.90;;;;;;5053281;28;19912;-64
2023/09/24 08:15:04;;;;;;;;;;;13.70;99.90;;;;;;5055771;28;19905;-65
2023/09/24 08:17:30;;;;;;;;;;;13.70;99.90;;;;;;5055589;28;19909;-64
2023/09/24 08:19:55;;;;;;;;;;;13.80;99.90;;;;;;5060620;28;19916;-64
2023/09/24 08:22:23;;;;;;;;;;;13.90;99.90;;;;;;5072534;28;20380;-65
2023/09/24 08:24:48;;;;;;;;;;;14.00;99.90;;;;;;5067516;28;19912;-65
2023/09/24 08:27:13;;;;;;;;;;;14.20;99.90;;;;;;5073666;28;19978;-70
2023/09/24 08:29:39;;;;;;;;;;;14.20;99.90;;;;;;5078101;28;19927;-70
2023/09/24 08:32:05;;;;;;;;;;;14.40;99.90;;;;;;5071885;28;19904;-71
2023/09/24 08:34:30;;;;;;;;;;;14.50;99.90;;;;;;5080691;28;19928;-69
2023/09/24 08:36:56;;;;;;;;;;;14.50;99.90;;;;;;5077979;28;19991;-68
2023/09/24 08:39:21;;;;;;;;;;;14.60;99.90;;;;;;5077967;28;19904;-68
2023/09/24 08:41:47;;;;;;;;;;;14.60;99.90;;;;;;5078104;28;19991;-69
2023/09/24 08:44:13;;;;;;;;;;;14.90;99.90;;;;;;5076852;28;19904;-69
2023/09/24 08:46:39;;;;;;;;;;;15.00;99.90;;;;;;5077221;28;20305;-69
2023/09/24 08:49:05;;;;;;;;;;;15.20;99.90;;;;;;5077298;28;19904;-68
2023/09/24 08:51:32;;;;;;;;;;;15.20;99.90;;;;;;5075470;28;19926;-68
2023/09/24 08:53:57;;;;;;;;;;;15.40;99.90;;;;;;5076369;28;19950;-68
2023/09/24 08:56:25;;;;;;;;;;;15.80;99.90;;;;;;5075286;28;19905;-71
2023/09/24 08:58:51;;;;;;;;;;;18.10;99.90;;;;;;5076725;28;19904;-69
2023/09/24 09:01:16;;;;;;;;;;;21.40;99.90;;;;;;5075428;28;20042;-69
2023/09/24 09:03:42;;;;;;;;;;;24.20;95.50;;;;;;5076357;28;20343;-70
2023/09/24 09:06:08;;;;;;;;;;;26.20;92.10;;;;;;5074385;28;20270;-67
2023/09/24 09:08:52;;;;;;;;;;;27.70;89.00;;;;;;5076083;28;19973;-67
2023/09/24 09:11:19;;;;;;;;;;;28.00;85.40;;;;;;5076386;28;19927;-67
2023/09/24 09:13:49;;;;;;;;;;;28.80;84.00;;;;;;5074735;28;19912;-65
2023/09/24 09:16:16;;;;;;;;;;;29.60;81.80;;;;;;5076236;28;20274;-68
2023/09/24 09:18:42;;;;;;;;;;;30.60;79.10;;;;;;5076332;28;19958;-69
2023/09/24 09:21:07;;;;;;;;;;;30.90;77.10;;;;;;5074908;28;19904;-68
2023/09/24 09:23:35;;;;;;;;;;;31.30;76.20;;;;;;5076030;28;19911;-68
2023/09/24 09:26:00;;;;;;;;;;;31.30;75.00;;;;;;5076133;28;19959;-72
2023/09/24 09:28:30;;;;;;;;;;;31.70;73.10;;;;;;5075397;28;20005;-69
2023/09/24 09:31:09;;;;;;;;;;;31.40;72.20;;;;;;5075762;28;19950;-70
2023/09/24 09:33:42;;;;;;;;;;;30.70;72.30;;;;;;5074575;28;20263;-66
2023/09/24 09:36:23;;;;;;;;;;;29.90;72.90;;;;;;5065235;28;19904;-70
2023/09/24 09:38:50;;;;;;;;;;;27.50;74.50;;;;;;5071115;28;20425;-65
2023/09/24 09:41:20;;;;;;;;;;;25.80;77.50;;;;;;5055797;28;19912;-66
2023/09/24 09:43:47;;;;;;;;;;;24.80;78.50;;;;;;5055631;28;19904;-65
2023/09/24 09:46:16;;;;;;;;;;;24.30;80.20;;;;;;5055235;28;20005;-64
2023/09/24 09:48:45;;;;;;;;;;;24.60;82.30;;;;;;5055303;28;19911;-66
2023/09/24 09:51:12;;;;;;;;;;;27.20;79.40;;;;;;5055106;28;19905;-66
2023/09/24 09:53:39;;;;;;;;;;;28.80;75.60;;;;;;5055077;28;19912;-66
2023/09/24 09:56:05;;;;;;;;;;;30.70;73.40;;;;;;5055190;28;19944;-66
2023/09/24 09:58:36;;;;;;;;;;;31.60;71.50;;;;;;5053765;28;20222;-65
2023/09/24 10:01:03;;;;;;;;;;;33.00;69.00;;;;;;5055163;28;19904;-65
2023/09/24 10:03:30;;;;;;;;;;;33.80;67.10;;;;;;5055208;28;20003;-65
2023/09/24 10:05:57;;;;;;;;;;;33.60;66.10;;;;;;5070060;28;19952;-66
2023/09/24 10:08:34;;;;;;;;;;;33.70;65.50;;;;;;5054695;28;19958;-65
2023/09/24 10:11:01;;;;;;;;;;;34.20;64.40;;;;;;5054694;28;20003;-65
2023/09/24 10:14:05;;;;;;;;;;;33.70;64.00;;;;;;5054692;28;20258;-67
2023/09/24 10:16:37;;;;;;;;;;;33.30;63.40;;;;;;5032671;28;19905;-66
2023/09/24 10:19:10;;;;;;;;;;;33.40;64.70;;;;;;5045958;28;19935;-66
2023/09/24 10:21:36;;;;;;;;;;;34.10;64.00;;;;;;5052266;28;19905;-65
2023/09/24 10:24:14;;;;;;;;;;;34.30;63.70;;;;;;5052302;28;19905;-65
2023/09/24 10:26:48;;;;;;;;;;;34.20;61.50;;;;;;5052373;28;19963;-66
2023/09/24 10:29:18;;;;;;;;;;;34.20;61.90;;;;;;5035585;28;19917;-65
2023/09/24 10:32:02;;;;;;;;;;;34.30;60.70;;;;;;5052346;28;19919;-66
2023/09/24 10:34:47;;;;;;;;;;;34.10;60.20;;;;;;5035403;28;19911;-66
2023/09/24 10:37:13;;;;;;;;;;;34.20;61.10;;;;;;5051591;28;19955;-66
2023/09/24 10:39:57;;;;;;;;;;;33.90;61.10;;;;;;5035555;28;19904;-66
2023/09/24 10:42:22;;;;;;;;;;;34.00;61.50;;;;;;5051908;28;19911;-65
2023/09/24 10:45:07;;;;;;;;;;;33.80;60.80;;;;;;5051993;28;19905;-65
2023/09/24 10:47:38;;;;;;;;;;;34.30;60.40;;;;;;5053063;28;20367;-64
2023/09/24 10:50:03;;;;;;;;;;;34.60;59.70;;;;;;5054208;28;19911;-65
2023/09/24 10:52:44;;;;;;;;;;;34.40;59.80;;;;;;5054353;28;20338;-65
2023/09/24 10:55:10;;;;;;;;;;;33.60;60.40;;;;;;5053601;28;19909;-66
2023/09/24 10:57:36;;;;;;;;;;;32.80;60.10;;;;;;5053905;28;20418;-64
2023/09/24 11:00:01;;;;;;;;;;;31.70;57.50;;;;;;5053513;28;19905;-64
2023/09/24 11:02:28;;;;;;;;;;;29.10;60.50;;;;;;5053761;28;19991;-64
2023/09/24 11:04:53;;;;;;;;;;;27.00;63.50;;;;;;5053792;28;19912;-65
2023/09/24 11:07:18;;;;;;;;;;;25.30;66.20;;;;;;5071992;28;19912;-64
2023/09/24 11:09:48;;;;;;;;;;;24.00;67.50;;;;;;5073448;28;19911;-65
2023/09/24 11:12:13;;;;;;;;;;;23.30;69.60;;;;;;5073487;28;19904;-65
2023/09/24 11:14:39;;;;;;;;;;;22.60;72.50;;;;;;5072173;28;19916;-65
2023/09/24 11:17:04;;;;;;;;;;;22.00;74.70;;;;;;5073558;28;19904;-64
2023/09/24 11:19:46;;;;;;;;;;;21.60;76.80;;;;;;5073558;28;19942;-65
2023/09/24 11:22:16;;;;;;;;;;;21.30;78.40;;;;;;5073241;28;19905;-65
2023/09/24 11:24:41;;;;;;;;;;;20.80;79.40;;;;;;5071976;28;20347;-65
2023/09/24 11:27:07;;;;;;;;;;;20.60;79.30;;;;;;5073438;28;19915;-65
2023/09/24 11:29:32;;;;;;;;;;;20.40;79.80;;;;;;5073154;28;19963;-65
2023/09/24 11:31:58;;;;;;;;;;;20.30;81.60;;;;;;5073328;28;19904;-65
2023/09/24 11:34:23;;;;;;;;;;;20.30;81.80;;;;;;5073266;28;19908;-65
2023/09/24 11:36:55;;;;;;;;;;;20.20;82.50;;;;;;5072505;28;20252;-65
2023/09/24 11:39:21;;;;;;;;;;;20.10;81.10;;;;;;5073588;28;19904;-65
2023/09/24 11:41:46;;;;;;;;;;;20.10;81.70;;;;;;5073555;28;20357;-64
2023/09/24 11:44:12;;;;;;;;;;;20.10;82.60;;;;;;5073124;28;19908;-64
2023/09/24 11:46:40;;;;;;;;;;;20.00;81.00;;;;;;5073281;28;19954;-64
2023/09/24 11:49:06;;;;;;;;;;;20.00;81.50;;;;;;5073238;28;19970;-64
2023/09/24 11:51:32;;;;;;;;;;;20.20;79.70;;;;;;5073138;28;20358;-63
2023/09/24 11:53:57;;;;;;;;;;;20.10;79.60;;;;;;5073551;28;19940;-64
2023/09/24 11:56:23;;;;;;;;;;;20.10;79.40;;;;;;5073030;28;20397;-65
2023/09/24 11:58:48;;;;;;;;;;;20.10;80.10;;;;;;5072948;28;19991;-64
2023/09/24 12:01:14;;;;;;;;;;;20.00;80.20;;;;;;5073066;28;19911;-65
2023/09/24 12:03:42;;;;;;;;;;;20.00;80.40;;;;;;5071728;28;19916;-64
2023/09/24 12:06:08;;;;;;;;;;;20.00;81.20;;;;;;5072556;28;20049;-64
2023/09/24 12:08:34;;;;;;;;;;;20.10;81.20;;;;;;5076741;28;19932;-64
2023/09/24 12:10:59;;;;;;;;;;;20.20;80.20;;;;;;5077220;28;19908;-64
2023/09/24 12:13:25;;;;;;;;;;;20.30;80.10;;;;;;5077257;28;19904;-65
2023/09/24 12:15:51;;;;;;;;;;;20.20;79.70;;;;;;5076851;28;19904;-65
2023/09/24 12:18:16;;;;;;;;;;;20.30;79.70;;;;;;5076589;28;19911;-66
2023/09/24 12:20:43;;;;;;;;;;;20.30;79.70;;;;;;5076218;28;19904;-65
2023/09/24 12:23:09;;;;;;;;;;;20.40;79.40;;;;;;5076986;28;19911;-65
2023/09/24 12:25:35;;;;;;;;;;;20.40;79.50;;;;;;5076671;28;19911;-65
2023/09/24 12:28:06;;;;;;;;;;;20.50;79.10;;;;;;5076911;28;20053;-66
2023/09/24 12:30:31;;;;;;;;;;;20.40;79.40;;;;;;5076665;28;19905;-66
2023/09/24 12:32:57;;;;;;;;;;;20.50;79.00;;;;;;5076713;28;20006;-66
2023/09/24 12:35:24;;;;;;;;;;;20.40;78.90;;;;;;5076550;28;19915;-65
2023/09/24 12:37:49;;;;;;;;;;;20.40;78.60;;;;;;5076530;28;20370;-66
2023/09/24 12:40:15;;;;;;;;;;;20.50;78.40;;;;;;5075441;28;19951;-66
2023/09/24 12:42:41;;;;;;;;;;;20.60;78.40;;;;;;5076950;28;20351;-66
2023/09/24 12:45:07;;;;;;;;;;;20.60;78.60;;;;;;5076670;28;19904;-64
2023/09/24 12:47:33;;;;;;;;;;;20.70;78.60;;;;;;5077116;28;19923;-64
2023/09/24 12:50:06;;;;;;;;;;;20.70;78.20;;;;;;5076819;28;19908;-65
2023/09/24 12:52:35;;;;;;;;;;;20.50;78.10;;;;;;5078280;28;19905;-64
2023/09/24 12:55:01;;;;;;;;;;;20.50;79.30;;;;;;5084244;28;19919;-65
2023/09/24 12:57:27;;;;;;;;;;;20.70;78.80;;;;;;5083563;28;19908;-64
2023/09/24 12:59:52;;;;;;;;;;;20.80;77.80;;;;;;5083063;28;19910;-65
2023/09/24 13:02:18;;;;;;;;;;;20.80;77.90;;;;;;5080164;28;19912;-65
2023/09/24 13:04:44;;;;;;;;;;;20.70;77.80;;;;;;5078211;28;19905;-65
2023/09/24 13:07:09;;;;;;;;;;;20.60;77.80;;;;;;5075439;28;19913;-66
2023/09/24 13:09:35;;;;;;;;;;;20.70;78.10;;;;;;5075698;28;19912;-65
2023/09/24 13:12:01;;;;;;;;;;;20.70;78.50;;;;;;5074650;28;19904;-65
2023/09/24 13:14:26;;;;;;;;;;;20.80;78.40;;;;;;5074686;28;19987;-65
2023/09/24 13:16:52;;;;;;;;;;;20.80;76.90;;;;;;5075718;28;19962;-64
2023/09/24 13:19:17;;;;;;;;;;;20.90;76.30;;;;;;5075054;28;20355;-64
2023/09/24 13:21:43;;;;;;;;;;;21.30;75.30;;;;;;5075889;28;19904;-64
2023/09/24 13:24:09;;;;;;;;;;;21.50;75.00;;;;;;5076041;28;19911;-63
2023/09/24 13:26:35;;;;;;;;;;;21.60;75.70;;;;;;5074371;28;19916;-64
2023/09/24 13:29:02;;;;;;;;;;;21.60;75.90;;;;;;5074101;28;20375;-64
2023/09/24 13:31:27;;;;;;;;;;;21.40;76.00;;;;;;5075603;28;19959;-64
2023/09/24 13:33:53;;;;;;;;;;;21.30;77.40;;;;;;5074228;28;19911;-65
2023/09/24 13:36:18;;;;;;;;;;;21.20;77.70;;;;;;5075630;28;19904;-65
2023/09/24 13:38:44;;;;;;;;;;;21.10;77.70;;;;;;5075651;28;19904;-65
2023/09/24 13:41:10;;;;;;;;;;;21.10;78.50;;;;;;5075486;28;19908;-65
2023/09/24 13:43:36;;;;;;;;;;;21.10;77.60;;;;;;5074757;28;20000;-65
2023/09/24 13:46:01;;;;;;;;;;;21.20;77.20;;;;;;5075566;28;19947;-65
2023/09/24 13:48:26;;;;;;;;;;;21.00;76.00;;;;;;5075687;28;19904;-66
2023/09/24 13:50:52;;;;;;;;;;;21.00;76.60;;;;;;5075423;28;19904;-66
2023/09/24 13:53:18;;;;;;;;;;;21.10;76.40;;;;;;5075524;28;19934;-65
2023/09/24 13:55:44;;;;;;;;;;;21.10;76.10;;;;;;5074037;28;19947;-64
2023/09/24 13:58:10;;;;;;;;;;;21.10;76.30;;;;;;5075260;28;19913;-65
2023/09/24 14:00:36;;;;;;;;;;;21.00;76.40;;;;;;5074624;28;20371;-65
2023/09/24 14:03:01;;;;;;;;;;;21.00;76.60;;;;;;5074120;28;19904;-65
2023/09/24 14:05:29;;;;;;;;;;;21.00;76.40;;;;;;5074305;28;20359;-65
2023/09/24 14:12:16;;;;;;;;;;;21.30;75.70;;;;;;5074764;28;19912;-66
2023/09/24 14:13:24;;;;;;;;;;;21.70;75.30;;;;;;5075588;28;20006;-64
2023/09/24 14:15:49;;;;;;;;;;;21.50;75.10;;;;;;5073885;28;20378;-66
2023/09/24 14:18:15;;;;;;;;;;;21.40;75.40;;;;;;5075296;28;19905;-64